»·PEaware :: N843QV KSNA-KVCV

N843QV :: KSNA-KVCV

FLIGHT INFORMATION

Flight Status: Arrived
Operator: Privately registered:
United States
More flights under this callsign
Pilot: Tony D. (5369)
Aircraft: CESSNA 208 CARAVAN
(C208)
More flights by this aircraft type
Origin: KSNA John Wayne-Orange Co
United States
Destination: KVCV Socal Logistics
United States
More flights between these airports :: More routes between these airports
Route: PDZ
File this flight plan on PilotEdge
Remarks: FF
Altitude:
(Current/Filed)
7,500ft
Speed:
(Current/Filed)
150kts
Departed: 12-Oct-17 09:59 AM
Arrived: 12-Oct-17 10:37 AM
Distance/Time
Traveled:
60nm/0:37
Distance/Time
To Go:
Arrived

Flight Plot

Page will automatically refresh every two minutes.

Flight plan parsing failed; only flown route is shown


Map Options




Map Legend


Flown Route
Filed Route
Departure Airport
Arrival Airport
Navaid (VOR, NDB)
Fix

Horizontal Profiles

Position Reports

Time Latitude Longitude Heading Altitude Ground
Speed
12-Oct-17 09:53 33.671271 -117.867518 213 61ft 0kts
12-Oct-17 09:54 33.671271 -117.867518 213 61ft 0kts
12-Oct-17 09:55 33.671271 -117.867518 213 61ft 0kts
12-Oct-17 09:56 33.671271 -117.867518 213 61ft 0kts
12-Oct-17 09:57 33.671271 -117.867518 213 61ft 0kts
12-Oct-17 09:58 33.671271 -117.867518 213 61ft 0kts
12-Oct-17 09:59 33.671460 -117.868344 320 62ft 10kts
12-Oct-17 10:00 33.673738 -117.867191 337 61ft 9kts
12-Oct-17 10:01 33.677039 -117.865203 27 61ft 17kts
12-Oct-17 10:02 33.679619 -117.863592 29 61ft 5kts
12-Oct-17 10:03 33.679948 -117.863612 300 61ft 0kts
12-Oct-17 10:04 33.673181 -117.868621 211 127ft 105kts
12-Oct-17 10:05 33.650571 -117.890036 241 963ft 109kts
12-Oct-17 10:06 33.634722 -117.921615 241 1860ft 112kts
12-Oct-17 10:07 33.618785 -117.953305 241 2756ft 110kts
12-Oct-17 10:08 33.596248 -117.955060 100 3644ft 112kts
12-Oct-17 10:09 33.608411 -117.928940 85 4460ft 106kts
12-Oct-17 10:10 33.607970 -117.894315 74 5346ft 102kts
12-Oct-17 10:11 33.618990 -117.865351 39 6234ft 100kts
12-Oct-17 10:12 33.639869 -117.841831 40 7133ft 109kts
12-Oct-17 10:13 33.664925 -117.813575 40 7491ft 146kts
12-Oct-17 10:14 33.694137 -117.781029 40 7483ft 162kts
12-Oct-17 10:15 33.727018 -117.744332 41 7481ft 164kts
12-Oct-17 10:16 33.760696 -117.706653 40 7497ft 167kts
12-Oct-17 10:17 33.794631 -117.668702 39 7500ft 168kts
12-Oct-17 10:18 33.828603 -117.630662 39 7500ft 168kts
12-Oct-17 10:19 33.862597 -117.592557 39 7500ft 168kts
12-Oct-17 10:20 33.896536 -117.554475 40 7500ft 168kts
12-Oct-17 10:21 33.929551 -117.518250 27 7497ft 167kts
12-Oct-17 10:22 33.970899 -117.497679 22 7501ft 167kts
12-Oct-17 10:23 34.011003 -117.473146 23 7501ft 167kts
12-Oct-17 10:24 34.051220 -117.448390 23 7501ft 167kts
12-Oct-17 10:25 34.092284 -117.423075 23 7501ft 167kts
12-Oct-17 10:26 34.133386 -117.412238 346 7155ft 173kts
12-Oct-17 10:27 34.178703 -117.419618 352 6514ft 152kts
12-Oct-17 10:28 34.220669 -117.420030 357 6502ft 158kts
12-Oct-17 10:29 34.264870 -117.417974 359 6501ft 159kts
12-Oct-17 10:30 34.308787 -117.414320 1 6500ft 160kts
12-Oct-17 10:31 34.353321 -117.410535 0 6436ft 160kts
12-Oct-17 10:31 34.389652 -117.407479 1 6501ft 158kts
12-Oct-17 10:33 34.440445 -117.403162 1 6458ft 148kts
12-Oct-17 10:34 34.475461 -117.399252 24 5715ft 116kts
12-Oct-17 10:35 34.498945 -117.381259 21 5088ft 92kts
12-Oct-17 10:35 34.518659 -117.373414 11 4540ft 88kts
12-Oct-17 10:37 34.546488 -117.368539 0 4165ft 86kts
12-Oct-17 10:37 34.566424 -117.367750 0 3963ft 86kts
12-Oct-17 10:38 34.584018 -117.349748 42 3757ft 85kts
12-Oct-17 10:39 34.601276 -117.337638 353 3711ft 79kts
12-Oct-17 10:41 34.604981 -117.360430 237 3177ft 84kts
12-Oct-17 10:41 34.594788 -117.373392 225 2890ft 39kts
12-Oct-17 10:43 34.589732 -117.377652 133 2889ft 2kts
12-Oct-17 10:43 34.590088 -117.375852 92 2889ft 12kts
12-Oct-17 10:44 34.589206 -117.374591 135 2889ft 0kts

Navigation Log

Ident Type
Flight plan parsing failed, navigation log unavailable